This is the latest recevied weather packets stored in our database for station/object SQ3VAS-10. If no packets are shown the sender has not sent any weather packets the latest 10 day(s).
| Time | Temp. | Humidity | Pressure | Rain* | Wind** | Luminosity | Snow |
|---|---|---|---|---|---|---|---|
| 1778086334 | 12.78° C | 81% | 1008.1 hPa | - | - | - | - |
| 1778085762 | 12.22° C | 82% | 1008.1 hPa | - | - | - | - |
| 1778085190 | 12.78° C | 79% | 1008.1 hPa | - | - | - | - |
| 1778084619 | 13.33° C | 77% | 1008 hPa | - | - | - | - |
| 1778084046 | 12.78° C | 81% | 1007.9 hPa | - | - | - | - |
| 1778083474 | 12.78° C | 79% | 1008 hPa | - | - | - | - |
| 1778082904 | 13.33° C | 78% | 1008 hPa | - | - | - | - |
| 1778082327 | 12.78° C | 79% | 1008 hPa | - | - | - | - |
| 1778081756 | 12.78° C | 78% | 1008 hPa | - | - | - | - |
| 1778081183 | 13.89° C | 78% | 1007.9 hPa | - | - | - | - |
| 1778080611 | 13.33° C | 80% | 1008 hPa | - | - | - | - |
| 1778080038 | 12.78° C | 81% | 1007.9 hPa | - | - | - | - |
| 1778079466 | 12.78° C | 81% | 1007.8 hPa | - | - | - | - |
| 1778078894 | 12.78° C | 81% | 1007.7 hPa | - | - | - | - |
| 1778078321 | 12.78° C | 84% | 1007.7 hPa | - | - | - | - |
| 1778077749 | 12.22° C | 83% | 1007.7 hPa | - | - | - | - |
| 1778077177 | 12.22° C | 82% | 1007.7 hPa | - | - | - | - |
| 1778076605 | 12.22° C | 85% | 1007.7 hPa | - | - | - | - |
| 1778076034 | 12.78° C | 84% | 1007.4 hPa | - | - | - | - |
| 1778075459 | 12.22° C | 87% | 1007.5 hPa | - | - | - | - |
| 1778074887 | 12.22° C | 88% | 1007.5 hPa | - | - | - | - |
| 1778074315 | 11.67° C | 91% | 1007.4 hPa | - | - | - | - |
| 1778073743 | 11.67° C | 89% | 1007.3 hPa | - | - | - | - |
| 1778073171 | 11.67° C | 90% | 1007.4 hPa | - | - | - | - |
| 1778072599 | 12.22° C | 89% | 1007.4 hPa | - | - | - | - |
* Rain since midnight (hover to see other rain measurements)
** Current wind speed in m/s (hover to see current wind gust speed)